createdAt,value
2022-09-12T00:00:43.797Z,24.7
2022-09-12T00:01:45.371Z,24.7
2022-09-12T00:02:47.302Z,24.7
2022-09-12T00:03:48.921Z,24.7
2022-09-12T00:04:50.720Z,24.7
2022-09-12T00:05:52.464Z,24.7
2022-09-12T00:06:54.007Z,24.7
2022-09-12T00:07:55.691Z,24.7
2022-09-12T00:08:57.332Z,24.7
2022-09-12T00:09:58.977Z,24.7
2022-09-12T00:11:00.526Z,24.7
2022-09-12T00:12:02.059Z,24.7
2022-09-12T00:13:03.599Z,24.7
2022-09-12T00:14:05.144Z,24.7
2022-09-12T00:15:06.675Z,24.7
2022-09-12T00:16:08.245Z,24.7
2022-09-12T00:17:10.133Z,24.7
2022-09-12T00:18:11.735Z,24.7
2022-09-12T00:19:13.377Z,24.7
2022-09-12T00:20:15.194Z,24.7
2022-09-12T00:21:16.966Z,24.7
2022-09-12T00:22:18.566Z,24.6
2022-09-12T00:23:20.327Z,24.6
2022-09-12T00:24:21.910Z,24.6
2022-09-12T00:25:23.549Z,24.6
2022-09-12T00:26:25.088Z,24.6
2022-09-12T00:27:26.632Z,24.6
2022-09-12T00:28:28.368Z,24.6
2022-09-12T00:29:29.912Z,24.6
2022-09-12T00:30:31.557Z,24.6
2022-09-12T00:31:33.191Z,24.6
2022-09-12T00:32:35.011Z,24.6
2022-09-12T00:33:36.582Z,24.6
2022-09-12T00:34:38.118Z,24.6
2022-09-12T00:35:39.870Z,24.6
2022-09-12T00:36:41.490Z,24.6
2022-09-12T00:37:43.174Z,24.6
2022-09-12T00:38:44.826Z,24.6
2022-09-12T00:39:47.270Z,24.6
2022-09-12T00:40:49.200Z,24.6
2022-09-12T00:41:50.731Z,24.6
2022-09-12T00:42:52.524Z,24.6
2022-09-12T00:43:54.148Z,24.6
2022-09-12T00:44:55.779Z,24.6
2022-09-12T00:45:57.392Z,24.6
2022-09-12T00:46:59.380Z,24.6
2022-09-12T00:48:00.963Z,24.6
2022-09-12T00:49:02.838Z,24.6
2022-09-12T00:50:04.466Z,24.6
2022-09-12T00:51:06.191Z,24.6
2022-09-12T00:52:10.964Z,24.6
2022-09-12T00:53:12.751Z,24.6
2022-09-12T00:54:14.389Z,24.6
2022-09-12T00:55:16.041Z,24.6
2022-09-12T00:56:17.701Z,24.6
2022-09-12T00:57:19.308Z,24.5
2022-09-12T00:58:20.859Z,24.6
2022-09-12T00:59:22.582Z,24.6
2022-09-12T01:00:24.271Z,24.6
2022-09-12T01:01:28.254Z,24.6
2022-09-12T01:02:34.704Z,24.5
2022-09-12T01:03:36.298Z,24.5
2022-09-12T01:04:37.888Z,24.5
2022-09-12T01:05:39.485Z,24.5
2022-09-12T01:06:41.315Z,24.5
2022-09-12T01:07:43.074Z,24.5
2022-09-12T01:08:44.677Z,24.5
2022-09-12T01:09:46.868Z,24.5
2022-09-12T01:10:48.434Z,24.5
2022-09-12T01:11:49.970Z,24.5
2022-09-12T01:12:51.509Z,24.5
2022-09-12T01:13:53.048Z,24.5
2022-09-12T01:14:54.736Z,24.5
2022-09-12T01:15:56.417Z,24.5
2022-09-12T01:16:58.001Z,24.5
2022-09-12T01:17:59.649Z,24.5
2022-09-12T01:19:01.211Z,24.5
2022-09-12T01:20:02.863Z,24.5
2022-09-12T01:21:04.425Z,24.5
2022-09-12T01:22:06.194Z,24.5
2022-09-12T01:23:07.853Z,24.5
2022-09-12T01:24:09.474Z,24.4
2022-09-12T01:25:11.180Z,24.5
2022-09-12T01:26:12.933Z,24.4
2022-09-12T01:27:14.458Z,24.4
2022-09-12T01:28:15.997Z,24.4
2022-09-12T01:29:17.639Z,24.4
2022-09-12T01:30:19.311Z,24.4
2022-09-12T01:31:20.923Z,24.4
2022-09-12T01:32:22.514Z,24.4
2022-09-12T01:33:24.474Z,24.4
2022-09-12T01:34:26.054Z,24.4
2022-09-12T01:35:27.683Z,24.4
2022-09-12T01:36:29.409Z,24.4
2022-09-12T01:37:31.257Z,24.4
2022-09-12T01:38:32.849Z,24.5
2022-09-12T01:39:34.420Z,24.5
2022-09-12T01:40:36.220Z,24.5
2022-09-12T01:41:37.813Z,24.5
2022-09-12T01:42:39.347Z,24.5
2022-09-12T01:43:40.878Z,24.5
2022-09-12T01:44:42.653Z,24.5
2022-09-12T01:45:44.255Z,24.4
2022-09-12T01:46:46.166Z,24.4
2022-09-12T01:47:47.826Z,24.4
2022-09-12T01:48:49.377Z,24.4
2022-09-12T01:49:51.025Z,24.4
2022-09-12T01:50:52.750Z,24.4
2022-09-12T01:51:54.341Z,24.4
2022-09-12T01:52:56.063Z,24.4
2022-09-12T01:53:57.743Z,24.4
2022-09-12T01:54:59.519Z,24.4
2022-09-12T01:56:01.120Z,24.4
2022-09-12T01:57:02.665Z,24.4
2022-09-12T01:58:04.260Z,24.4
2022-09-12T01:59:05.765Z,24.4
2022-09-12T02:00:07.426Z,24.4
2022-09-12T02:01:09.099Z,24.4
2022-09-12T02:02:10.985Z,24.4
2022-09-12T02:03:12.878Z,24.4
2022-09-12T02:04:14.476Z,24.3
2022-09-12T02:05:16.135Z,24.3
2022-09-12T02:06:17.883Z,24.3
2022-09-12T02:07:19.428Z,24.3
2022-09-12T02:08:21.152Z,24.3
2022-09-12T02:09:22.868Z,24.3
2022-09-12T02:10:26.366Z,24.3
2022-09-12T02:11:34.269Z,24.3
2022-09-12T02:12:35.913Z,24.3
2022-09-12T02:13:37.676Z,24.3
2022-09-12T02:14:39.308Z,24.3
2022-09-12T02:15:40.890Z,24.3
2022-09-12T02:16:42.617Z,24.3
2022-09-12T02:17:44.534Z,24.3
2022-09-12T02:18:46.290Z,24.3
2022-09-12T02:19:48.608Z,24.3
2022-09-12T02:20:50.359Z,24.3
2022-09-12T02:21:51.951Z,24.3
2022-09-12T02:22:53.601Z,24.3
2022-09-12T02:23:55.350Z,24.3
2022-09-12T02:24:57.021Z,24.3
2022-09-12T02:25:58.570Z,24.3
2022-09-12T02:27:00.436Z,24.3
2022-09-12T02:28:02.061Z,24.3
2022-09-12T02:29:03.638Z,24.3
2022-09-12T02:30:05.308Z,24.3
2022-09-12T02:31:06.968Z,24.3
2022-09-12T02:32:08.795Z,24.3
2022-09-12T02:33:10.484Z,24.3
2022-09-12T02:34:12.083Z,24.3
2022-09-12T02:35:13.698Z,24.3
2022-09-12T02:36:15.230Z,24.3
2022-09-12T02:37:16.825Z,24.3
2022-09-12T02:38:18.381Z,24.3
2022-09-12T02:39:20.204Z,24.3
2022-09-12T02:40:21.867Z,24.3
2022-09-12T02:41:23.701Z,24.3
2022-09-12T02:42:25.242Z,24.3
2022-09-12T02:43:26.771Z,24.2
2022-09-12T02:44:28.365Z,24.2
2022-09-12T02:45:30.087Z,24.2
2022-09-12T02:46:31.925Z,24.2
2022-09-12T02:47:33.463Z,24.2
2022-09-12T02:48:35.244Z,24.2
2022-09-12T02:49:37.178Z,24.2
2022-09-12T02:50:38.892Z,24.2
2022-09-12T02:51:40.609Z,24.2
2022-09-12T02:52:42.146Z,24.2
2022-09-12T02:53:43.692Z,24.2
2022-09-12T02:54:45.473Z,24.2
2022-09-12T02:55:47.190Z,24.2
2022-09-12T02:56:48.734Z,24.2
2022-09-12T02:57:50.439Z,24.2
2022-09-12T02:58:52.041Z,24.2
2022-09-12T02:59:53.659Z,24.2
2022-09-12T03:00:55.297Z,24.2
2022-09-12T03:01:57.281Z,24.2
2022-09-12T03:02:59.380Z,24.2
2022-09-12T03:04:01.157Z,24.2
2022-09-12T03:05:02.725Z,24.2
2022-09-12T03:06:04.343Z,24.2
2022-09-12T03:07:06.039Z,24.2
2022-09-12T03:08:07.754Z,24.2
2022-09-12T03:09:09.459Z,24.2
2022-09-12T03:10:11.223Z,24.2
2022-09-12T03:11:13.304Z,24.2
2022-09-12T03:12:14.877Z,24.2
2022-09-12T03:13:16.496Z,24.2
2022-09-12T03:14:18.135Z,24.2
2022-09-12T03:15:19.728Z,24.1
2022-09-12T03:16:21.364Z,24.1
2022-09-12T03:17:23.348Z,24.1
2022-09-12T03:18:24.899Z,24.2
2022-09-12T03:19:26.524Z,24.1
2022-09-12T03:20:28.191Z,24.1
2022-09-12T03:21:29.733Z,24.1
2022-09-12T03:22:31.273Z,24.1
2022-09-12T03:23:32.882Z,24.1
2022-09-12T03:24:34.494Z,24.1
2022-09-12T03:25:36.210Z,24.1
2022-09-12T03:26:37.877Z,24.1
2022-09-12T03:27:39.393Z,24.1
2022-09-12T03:28:40.981Z,24.1
2022-09-12T03:29:42.971Z,24.1
2022-09-12T03:30:44.631Z,24.1
2022-09-12T03:31:46.674Z,24.1
2022-09-12T03:32:48.310Z,24.1
2022-09-12T03:33:49.911Z,24.1
2022-09-12T03:34:51.442Z,24.1
2022-09-12T03:35:53.020Z,24.1
2022-09-12T03:36:54.736Z,24.1
2022-09-12T03:37:56.339Z,24.1
2022-09-12T03:38:57.900Z,24.1
2022-09-12T03:39:59.579Z,24.1
2022-09-12T03:41:01.640Z,24.1
2022-09-12T03:42:03.374Z,24.1
2022-09-12T03:43:04.911Z,24.1
2022-09-12T03:44:06.514Z,24.1
2022-09-12T03:45:08.222Z,24.1
2022-09-12T03:46:09.862Z,24.1
2022-09-12T03:47:11.673Z,24.1
2022-09-12T03:48:13.510Z,24.1
2022-09-12T03:49:15.127Z,24.1
2022-09-12T03:50:16.805Z,24.1
2022-09-12T03:51:18.433Z,24.1
2022-09-12T03:52:20.054Z,24.1
2022-09-12T03:53:21.586Z,24.1
2022-09-12T03:54:23.197Z,24.1
2022-09-12T03:55:24.733Z,24
2022-09-12T03:56:26.524Z,24
2022-09-12T03:57:28.318Z,24
2022-09-12T03:58:29.990Z,24
2022-09-12T03:59:31.568Z,24
2022-09-12T04:00:33.372Z,24
2022-09-12T04:01:35.098Z,24
2022-09-12T04:02:36.748Z,23.9
2022-09-12T04:03:38.293Z,24
2022-09-12T04:04:39.835Z,24
2022-09-12T04:05:41.477Z,24
2022-09-12T04:06:43.088Z,24
2022-09-12T04:07:44.732Z,24
2022-09-12T04:08:46.336Z,23.9
2022-09-12T04:09:48.571Z,23.9
2022-09-12T04:10:50.126Z,23.9
2022-09-12T04:11:51.944Z,23.9
2022-09-12T04:12:53.690Z,23.9
2022-09-12T04:13:55.219Z,23.8
2022-09-12T04:14:57.052Z,23.8
2022-09-12T04:15:58.595Z,23.8
2022-09-12T04:17:00.170Z,23.8
2022-09-12T04:18:05.660Z,23.8
2022-09-12T04:19:07.884Z,23.8
2022-09-12T04:20:09.477Z,23.8
2022-09-12T04:21:11.085Z,23.7
2022-09-12T04:22:12.842Z,23.7
2022-09-12T04:23:14.403Z,23.7
2022-09-12T04:24:16.016Z,23.7
2022-09-12T04:25:17.602Z,23.7
2022-09-12T04:26:19.154Z,23.7
2022-09-12T04:27:20.998Z,23.7
2022-09-12T04:28:22.802Z,23.7
2022-09-12T04:29:24.393Z,23.7
2022-09-12T04:30:25.961Z,23.7
2022-09-12T04:31:27.928Z,23.7
2022-09-12T04:32:29.451Z,23.7
2022-09-12T04:33:31.044Z,23.7
2022-09-12T04:34:32.616Z,23.7
2022-09-12T04:35:34.391Z,23.7
2022-09-12T04:36:36.098Z,23.7
2022-09-12T04:37:37.728Z,23.7
2022-09-12T04:38:39.493Z,23.7
2022-09-12T04:39:41.024Z,23.8
2022-09-12T04:40:42.907Z,23.8
2022-09-12T04:41:44.539Z,23.8
2022-09-12T04:42:46.357Z,23.8
2022-09-12T04:43:48.111Z,23.8
2022-09-12T04:44:49.754Z,23.9
2022-09-12T04:45:51.420Z,23.9
2022-09-12T04:46:53.467Z,23.9
2022-09-12T04:47:55.010Z,23.9
2022-09-12T04:48:57.147Z,23.9
2022-09-12T04:49:58.875Z,23.9
2022-09-12T04:51:00.393Z,24
2022-09-12T04:52:01.924Z,24
2022-09-12T04:53:03.469Z,24
2022-09-12T04:54:05.422Z,24
2022-09-12T04:55:07.120Z,24.1
2022-09-12T04:56:08.730Z,24.1
2022-09-12T04:57:10.302Z,24.1
2022-09-12T04:58:12.109Z,24.1
2022-09-12T04:59:13.831Z,24.1
2022-09-12T05:00:15.375Z,24.2
2022-09-12T05:01:17.030Z,24.2
2022-09-12T05:02:19.204Z,24.2
2022-09-12T05:03:21.290Z,24.3
2022-09-12T05:04:22.872Z,24.3
2022-09-12T05:05:24.424Z,24.4
2022-09-12T05:06:25.957Z,24.4
2022-09-12T05:07:27.674Z,24.4
2022-09-12T05:08:29.216Z,24.4
2022-09-12T05:09:30.885Z,24.5
2022-09-12T05:10:32.422Z,24.5
2022-09-12T05:12:00.007Z,24.5
2022-09-12T05:13:07.428Z,24.6
2022-09-12T05:14:09.197Z,24.6
2022-09-12T05:15:10.851Z,24.7
2022-09-12T05:16:12.549Z,24.7
2022-09-12T05:17:14.423Z,24.7
2022-09-12T05:18:16.079Z,24.7
2022-09-12T05:19:17.716Z,24.7
2022-09-12T05:20:19.252Z,24.8
2022-09-12T05:21:20.845Z,24.8
2022-09-12T05:22:25.506Z,24.8
2022-09-12T05:23:27.094Z,24.9
2022-09-12T05:24:28.646Z,24.9
2022-09-12T05:25:30.464Z,24.9
2022-09-12T05:26:32.067Z,24.9
2022-09-12T05:27:33.793Z,24.9
2022-09-12T05:28:35.501Z,25
2022-09-12T05:29:37.466Z,25
2022-09-12T05:30:39.074Z,25
2022-09-12T05:31:40.931Z,25.1
2022-09-12T05:32:42.620Z,25.1
2022-09-12T05:33:44.227Z,25.1
2022-09-12T05:34:45.793Z,25.1
2022-09-12T05:35:47.320Z,25.2
2022-09-12T05:36:48.908Z,25.2
2022-09-12T05:37:50.525Z,25.2
2022-09-12T05:38:52.152Z,25.2
2022-09-12T05:39:53.850Z,25.3
2022-09-12T05:40:55.635Z,25.3
2022-09-12T05:41:57.204Z,25.3
2022-09-12T05:42:58.914Z,25.4
2022-09-12T05:44:00.521Z,25.4
2022-09-12T05:45:02.244Z,25.4
2022-09-12T05:46:04.004Z,25.4
2022-09-12T05:47:05.958Z,25.5
2022-09-12T05:48:07.510Z,25.5
2022-09-12T05:49:09.055Z,25.6
2022-09-12T05:50:10.909Z,25.6
2022-09-12T05:51:12.540Z,25.6
2022-09-12T05:52:14.145Z,25.6
2022-09-12T05:53:15.897Z,25.7
2022-09-12T05:54:17.463Z,25.7
2022-09-12T05:55:19.110Z,25.7
2022-09-12T05:56:20.660Z,25.7
2022-09-12T05:57:22.456Z,25.7
2022-09-12T05:58:24.073Z,25.8
2022-09-12T05:59:25.668Z,25.8
2022-09-12T06:00:30.382Z,25.8
2022-09-12T06:01:35.569Z,25.8
2022-09-12T06:02:37.642Z,25.9
2022-09-12T06:03:39.656Z,25.9
2022-09-12T06:04:41.195Z,25.9
2022-09-12T06:05:42.802Z,25.9
2022-09-12T06:06:52.025Z,25.8
2022-09-12T06:07:53.686Z,25.9
2022-09-12T06:08:55.291Z,25.9
2022-09-12T06:09:56.905Z,25.9
2022-09-12T06:11:02.112Z,26
2022-09-12T06:12:04.140Z,26
2022-09-12T06:13:05.819Z,26
2022-09-12T06:14:07.470Z,26
2022-09-12T06:15:09.070Z,26
2022-09-12T06:16:10.994Z,26
2022-09-12T06:17:12.781Z,26.1
2022-09-12T06:18:14.371Z,26.1
2022-09-12T06:19:16.909Z,26.1
2022-09-12T06:20:18.489Z,26.1
2022-09-12T06:21:20.151Z,26.2
2022-09-12T06:22:21.657Z,26.2
2022-09-12T06:23:23.274Z,26.3
2022-09-12T06:24:24.864Z,26.3
2022-09-12T06:25:26.576Z,26.3
2022-09-12T06:26:28.151Z,26.3
2022-09-12T06:27:29.808Z,26.3
2022-09-12T06:28:31.678Z,26.3
2022-09-12T06:29:33.236Z,26.4
2022-09-12T06:30:37.681Z,26.4
2022-09-12T06:31:39.846Z,26.4
2022-09-12T06:32:41.444Z,26.4
2022-09-12T06:33:43.062Z,26.5
2022-09-12T06:34:44.861Z,26.5
2022-09-12T06:35:46.488Z,26.5
2022-09-12T06:36:48.035Z,26.5
2022-09-12T06:37:49.576Z,26.5
2022-09-12T06:38:51.234Z,26.5
2022-09-12T06:39:52.888Z,26.5
2022-09-12T06:40:54.718Z,26.5
2022-09-12T06:41:56.323Z,26.5
2022-09-12T06:42:58.014Z,26.6
2022-09-12T06:43:59.592Z,26.5
2022-09-12T06:45:01.194Z,26.5
2022-09-12T06:46:03.441Z,26.4
2022-09-12T06:47:05.704Z,26.4
2022-09-12T06:48:07.456Z,26.5
2022-09-12T06:49:09.097Z,26.5
2022-09-12T06:50:10.685Z,26.5
2022-09-12T06:51:12.241Z,26.5
2022-09-12T06:52:13.792Z,26.4
2022-09-12T06:53:15.398Z,26.5
2022-09-12T06:54:17.348Z,26.5
2022-09-12T06:55:21.010Z,26.5
2022-09-12T06:56:31.837Z,26.5
2022-09-12T06:57:33.544Z,26.5
2022-09-12T06:58:35.302Z,26.5
2022-09-12T06:59:37.395Z,26.5
2022-09-12T07:00:39.127Z,26.5
2022-09-12T07:01:40.757Z,26.5
2022-09-12T07:02:43.218Z,26.5
2022-09-12T07:03:45.143Z,26.6
2022-09-12T07:04:46.797Z,26.6
2022-09-12T07:05:48.423Z,26.6
2022-09-12T07:06:50.016Z,26.6
2022-09-12T07:07:51.623Z,26.6
2022-09-12T07:08:53.240Z,26.6
2022-09-12T07:09:54.897Z,26.6
2022-09-12T07:10:56.447Z,26.6
2022-09-12T07:11:58.006Z,26.6
2022-09-12T07:12:59.585Z,26.6
2022-09-12T07:14:01.457Z,26.6
2022-09-12T07:15:03.317Z,26.6
2022-09-12T07:16:04.973Z,26.6
2022-09-12T07:17:06.698Z,26.6
2022-09-12T07:18:08.918Z,26.6
2022-09-12T07:19:11.137Z,26.6
2022-09-12T07:20:12.760Z,26.6
2022-09-12T07:21:14.646Z,26.6
2022-09-12T07:22:16.302Z,26.6
2022-09-12T07:23:18.153Z,26.6
2022-09-12T07:24:22.731Z,26.6
2022-09-12T07:25:24.543Z,26.6
2022-09-12T07:26:26.128Z,26.6
2022-09-12T07:27:28.012Z,26.6
2022-09-12T07:28:29.826Z,26.6
2022-09-12T07:29:38.768Z,26.6
2022-09-12T07:30:40.381Z,26.6
2022-09-12T07:31:42.642Z,26.6
2022-09-12T07:32:44.219Z,26.6
2022-09-12T07:33:47.507Z,26.6
2022-09-12T07:34:56.623Z,26.6
2022-09-12T07:35:58.406Z,26.6
2022-09-12T07:37:00.437Z,26.6
2022-09-12T07:38:02.105Z,26.6
2022-09-12T07:39:03.943Z,26.6
2022-09-12T07:40:05.548Z,26.6
2022-09-12T07:41:07.518Z,26.5
2022-09-12T07:42:09.273Z,26.5
2022-09-12T07:43:10.922Z,26.5
2022-09-12T07:44:12.457Z,26.4
2022-09-12T07:45:13.985Z,26.4
2022-09-12T07:46:15.609Z,26.4
2022-09-12T07:47:17.486Z,26.4
2022-09-12T07:48:19.099Z,26.5
2022-09-12T07:49:20.867Z,26.5
2022-09-12T07:50:22.608Z,26.5
2022-09-12T07:51:24.440Z,26.4
2022-09-12T07:52:26.133Z,26.3
2022-09-12T07:53:27.752Z,26.3
2022-09-12T07:54:29.540Z,26.4
2022-09-12T07:55:31.281Z,26.4
2022-09-12T07:56:37.004Z,26.4
2022-09-12T07:57:41.157Z,26.4
2022-09-12T07:58:42.781Z,26.4
2022-09-12T07:59:53.123Z,26.3
2022-09-12T08:00:55.181Z,26.3
2022-09-12T08:01:56.903Z,26.4
2022-09-12T08:02:58.885Z,26.3
2022-09-12T08:04:00.883Z,26.3
2022-09-12T08:05:02.706Z,26.3
2022-09-12T08:06:04.425Z,26.3
2022-09-12T08:07:06.318Z,26.3
2022-09-12T08:08:08.033Z,26.3
2022-09-12T08:09:09.636Z,26.3
2022-09-12T08:10:11.297Z,26.4
2022-09-12T08:11:12.871Z,26.4
2022-09-12T08:12:14.491Z,26.3
2022-09-12T08:13:16.097Z,26.3
2022-09-12T08:14:18.005Z,26.3
2022-09-12T08:15:22.536Z,26.3
2022-09-12T08:16:24.217Z,26.3
2022-09-12T08:17:25.922Z,26.3
2022-09-12T08:18:27.532Z,26.3
2022-09-12T08:19:29.141Z,26.3
2022-09-12T08:20:30.946Z,26.3
2022-09-12T08:21:32.756Z,26.3
2022-09-12T08:22:34.387Z,26.3
2022-09-12T08:23:36.123Z,26.3
2022-09-12T08:24:37.879Z,26.2
2022-09-12T08:25:39.557Z,26.2
2022-09-12T08:26:41.105Z,26.2
2022-09-12T08:27:42.644Z,26.1
2022-09-12T08:28:44.268Z,26.1
2022-09-12T08:29:45.839Z,26.1
2022-09-12T08:30:47.538Z,26.1
2022-09-12T08:31:51.906Z,26.1
2022-09-12T08:32:58.869Z,26.2
2022-09-12T08:34:00.489Z,26.2
2022-09-12T08:35:02.146Z,26.2
2022-09-12T08:36:03.917Z,26.1
2022-09-12T08:37:05.746Z,26.2
2022-09-12T08:38:07.387Z,26.3
2022-09-12T08:39:09.106Z,26.4
2022-09-12T08:40:10.843Z,26.3
2022-09-12T08:41:12.736Z,26.3
2022-09-12T08:42:14.403Z,26.4
2022-09-12T08:43:16.190Z,26.3
2022-09-12T08:44:17.813Z,26.3
2022-09-12T08:45:19.415Z,26.3
2022-09-12T08:46:21.143Z,26.3
2022-09-12T08:47:23.159Z,26.3
2022-09-12T08:48:24.686Z,26.3
2022-09-12T08:49:26.349Z,26.3
2022-09-12T08:50:28.189Z,26.3
2022-09-12T08:51:30.080Z,26.3
2022-09-12T08:52:32.316Z,26.2
2022-09-12T08:53:34.024Z,26.2
2022-09-12T08:54:35.562Z,26.2
2022-09-12T08:55:37.148Z,26.1
2022-09-12T08:56:38.741Z,26.1
2022-09-12T08:57:40.280Z,26.2
2022-09-12T08:58:41.813Z,26.2
2022-09-12T08:59:43.481Z,26.1
2022-09-12T09:00:45.133Z,26.1
2022-09-12T09:01:46.748Z,26.1
2022-09-12T09:02:48.981Z,26
2022-09-12T09:03:51.121Z,26
2022-09-12T09:04:52.720Z,26
2022-09-12T09:05:54.372Z,26
2022-09-12T09:06:56.150Z,26
2022-09-12T09:07:57.914Z,26
2022-09-12T09:08:59.621Z,26
2022-09-12T09:10:01.505Z,26
2022-09-12T09:11:03.111Z,26
2022-09-12T09:12:04.824Z,26
2022-09-12T09:13:06.890Z,26.1
2022-09-12T09:14:08.418Z,26.1
2022-09-12T09:15:10.030Z,26.1
2022-09-12T09:16:11.721Z,26
2022-09-12T09:17:13.800Z,26
2022-09-12T09:18:15.342Z,26
2022-09-12T09:19:16.951Z,26.1
2022-09-12T09:20:18.579Z,26.2
2022-09-12T09:21:22.429Z,26.2
2022-09-12T09:22:24.141Z,26.1
2022-09-12T09:23:26.122Z,26.1
2022-09-12T09:24:27.748Z,26
2022-09-12T09:25:29.604Z,26.1
2022-09-12T09:26:31.214Z,26.1
2022-09-12T09:27:41.368Z,26.2
2022-09-12T09:28:43.675Z,26.2
2022-09-12T09:29:45.870Z,26.2
2022-09-12T09:30:47.549Z,26.1
2022-09-12T09:31:49.470Z,26.2
2022-09-12T09:32:51.118Z,26.2
2022-09-12T09:33:52.659Z,26.1
2022-09-12T09:34:54.277Z,26.1
2022-09-12T09:35:56.046Z,26.1
2022-09-12T09:36:57.731Z,26.1
2022-09-12T09:37:59.436Z,26.2
2022-09-12T09:39:01.090Z,26.1
2022-09-12T09:40:02.803Z,26.1
2022-09-12T09:41:04.687Z,26.1
2022-09-12T09:42:06.252Z,26.1
2022-09-12T09:43:07.953Z,26.1
2022-09-12T09:44:09.630Z,26.1
2022-09-12T09:45:11.800Z,26.1
2022-09-12T09:46:13.492Z,26.1
2022-09-12T09:47:15.412Z,26.1
2022-09-12T09:48:16.949Z,26.1
2022-09-12T09:49:18.560Z,26.1
2022-09-12T09:50:20.163Z,26.1
2022-09-12T09:51:21.883Z,26.1
2022-09-12T09:52:23.582Z,26.1
2022-09-12T09:53:25.348Z,26.1
2022-09-12T09:54:26.984Z,26.1
2022-09-12T09:55:28.551Z,26.1
2022-09-12T09:56:30.213Z,26.1
2022-09-12T09:57:31.979Z,26.1
2022-09-12T09:58:33.565Z,26.1
2022-09-12T09:59:35.172Z,26.1
2022-09-12T10:00:36.829Z,26.1
2022-09-12T10:01:38.507Z,26.1
2022-09-12T10:02:40.575Z,26.1
2022-09-12T10:03:42.824Z,26.1
2022-09-12T10:04:44.675Z,26.1
2022-09-12T10:05:46.385Z,26.1
2022-09-12T10:06:48.053Z,26.1
2022-09-12T10:07:49.722Z,26.1
2022-09-12T10:08:51.481Z,26.1
2022-09-12T10:09:53.296Z,26.1
2022-09-12T10:10:55.035Z,26.1
2022-09-12T10:11:56.585Z,26.1
2022-09-12T10:12:58.265Z,26.1
2022-09-12T10:13:59.804Z,26.1
2022-09-12T10:15:01.501Z,26.1
2022-09-12T10:16:03.174Z,26.1
2022-09-12T10:17:04.994Z,26.1
2022-09-12T10:18:06.691Z,26.1
2022-09-12T10:19:08.418Z,26.1
2022-09-12T10:20:20.801Z,26.1
2022-09-12T10:21:24.273Z,26.1
2022-09-12T10:22:26.136Z,26.1
2022-09-12T10:23:27.802Z,26.1
2022-09-12T10:24:30.078Z,26.1
2022-09-12T10:25:32.085Z,26.1
2022-09-12T10:26:33.771Z,26.1
2022-09-12T10:27:35.329Z,26.1
2022-09-12T10:28:36.890Z,26.1
2022-09-12T10:29:38.635Z,26.1
2022-09-12T10:30:40.274Z,26.1
2022-09-12T10:31:42.197Z,26.1
2022-09-12T10:32:44.011Z,26.1
2022-09-12T10:33:45.781Z,26.1
2022-09-12T10:34:48.216Z,26.2
2022-09-12T10:35:49.995Z,26.1
2022-09-12T10:36:51.634Z,26.1
2022-09-12T10:37:53.341Z,26.1
2022-09-12T10:38:54.927Z,26.2
2022-09-12T10:39:56.708Z,26.2
2022-09-12T10:40:58.742Z,26.1
2022-09-12T10:42:00.470Z,26.1
2022-09-12T10:43:02.021Z,26.2
2022-09-12T10:44:03.557Z,26.2
2022-09-12T10:45:05.103Z,26.3
2022-09-12T10:46:06.769Z,26.3
2022-09-12T10:47:08.883Z,26.3
2022-09-12T10:48:10.462Z,26.3
2022-09-12T10:49:12.019Z,26.3
2022-09-12T10:50:22.279Z,26.2
2022-09-12T10:51:25.097Z,26.3
2022-09-12T10:52:26.727Z,26.3
2022-09-12T10:53:32.365Z,26.3
2022-09-12T10:54:36.419Z,26.3
2022-09-12T10:55:38.188Z,26.3
2022-09-12T10:56:39.882Z,26.3
2022-09-12T10:57:41.596Z,26.3
2022-09-12T10:58:43.258Z,26.3
2022-09-12T10:59:44.802Z,26.3
2022-09-12T11:00:46.370Z,26.4
2022-09-12T11:01:48.026Z,26.4
2022-09-12T11:02:50.217Z,26.4
2022-09-12T11:03:52.421Z,26.4
2022-09-12T11:04:54.000Z,26.4
2022-09-12T11:05:55.742Z,26.4
2022-09-12T11:06:57.383Z,26.3
2022-09-12T11:07:59.087Z,26.4
2022-09-12T11:09:00.769Z,26.3
2022-09-12T11:10:02.370Z,26.3
2022-09-12T11:11:04.226Z,26.3
2022-09-12T11:12:06.014Z,26.3
2022-09-12T11:13:07.743Z,26.3
2022-09-12T11:14:09.938Z,26.3
2022-09-12T11:15:11.756Z,26.4
2022-09-12T11:16:13.485Z,26.4
2022-09-12T11:17:15.508Z,26.4
2022-09-12T11:18:17.212Z,26.4
2022-09-12T11:19:18.777Z,26.4
2022-09-12T11:20:20.408Z,26.4
2022-09-12T11:21:21.954Z,26.4
2022-09-12T11:22:23.495Z,26.3
2022-09-12T11:23:25.148Z,26.3
2022-09-12T11:24:26.745Z,26.4
2022-09-12T11:25:28.396Z,26.4
2022-09-12T11:26:30.222Z,26.4
2022-09-12T11:27:31.931Z,26.4
2022-09-12T11:28:33.653Z,26.4
2022-09-12T11:29:35.269Z,26.4
2022-09-12T11:30:37.206Z,26.4
2022-09-12T11:31:39.091Z,26.4
2022-09-12T11:32:40.838Z,26.4
2022-09-12T11:33:43.211Z,26.4
2022-09-12T11:34:45.535Z,26.5
2022-09-12T11:35:48.990Z,26.5
2022-09-12T11:36:57.112Z,26.5
2022-09-12T11:37:58.684Z,26.6
2022-09-12T11:39:00.237Z,26.6
2022-09-12T11:40:02.125Z,26.7
2022-09-12T11:41:04.239Z,26.7
2022-09-12T11:42:05.970Z,26.7
2022-09-12T11:43:07.679Z,26.7
2022-09-12T11:44:09.279Z,26.7
2022-09-12T11:45:10.933Z,26.8
2022-09-12T11:46:12.561Z,26.8
2022-09-12T11:47:14.654Z,26.8
2022-09-12T11:48:16.365Z,26.8
2022-09-12T11:49:17.961Z,26.7
2022-09-12T11:50:19.645Z,26.7
2022-09-12T11:51:21.439Z,26.7
2022-09-12T11:52:23.091Z,26.7
2022-09-12T11:53:24.708Z,26.7
2022-09-12T11:54:26.505Z,26.7
2022-09-12T11:55:28.114Z,26.7
2022-09-12T11:56:29.651Z,26.7
2022-09-12T11:57:31.504Z,26.7
2022-09-12T11:58:33.178Z,26.7
2022-09-12T11:59:34.789Z,26.7
2022-09-12T12:00:36.389Z,26.8
2022-09-12T12:01:42.137Z,26.8
2022-09-12T12:02:50.287Z,26.8
2022-09-12T12:03:52.096Z,26.8
2022-09-12T12:04:54.337Z,26.8
2022-09-12T12:05:56.027Z,26.8
2022-09-12T12:06:57.593Z,26.8
2022-09-12T12:07:59.130Z,26.8
2022-09-12T12:09:00.757Z,26.7
2022-09-12T12:10:02.340Z,26.8
2022-09-12T12:11:04.137Z,26.7
2022-09-12T12:12:05.729Z,26.8
2022-09-12T12:13:10.820Z,26.7
2022-09-12T12:14:15.813Z,26.7
2022-09-12T12:15:17.605Z,26.7
2022-09-12T12:16:19.204Z,26.7
2022-09-12T12:17:21.377Z,26.7
2022-09-12T12:18:23.033Z,26.6
2022-09-12T12:19:24.664Z,26.6
2022-09-12T12:20:26.291Z,26.6
2022-09-12T12:21:27.944Z,26.6
2022-09-12T12:22:29.578Z,26.6
2022-09-12T12:23:31.191Z,26.6
2022-09-12T12:24:32.992Z,26.6
2022-09-12T12:25:34.638Z,26.7
2022-09-12T12:26:36.188Z,26.7
2022-09-12T12:27:37.803Z,26.7
2022-09-12T12:28:39.701Z,26.7
2022-09-12T12:29:43.795Z,26.7
2022-09-12T12:30:46.267Z,26.7
2022-09-12T12:31:48.168Z,26.7
2022-09-12T12:32:49.943Z,26.7
2022-09-12T12:33:51.511Z,26.6
2022-09-12T12:34:53.213Z,26.6
2022-09-12T12:35:54.782Z,26.6
2022-09-12T12:36:56.370Z,26.6
2022-09-12T12:37:57.947Z,26.6
2022-09-12T12:38:59.647Z,26.7
2022-09-12T12:40:01.513Z,26.7
2022-09-12T12:41:03.719Z,26.7
2022-09-12T12:42:05.281Z,26.6
2022-09-12T12:43:06.901Z,26.6
2022-09-12T12:44:08.787Z,26.6
2022-09-12T12:45:10.478Z,26.5
2022-09-12T12:46:12.100Z,26.5
2022-09-12T12:47:14.804Z,26.6
2022-09-12T12:48:16.362Z,26.7
2022-09-12T12:49:17.908Z,26.7
2022-09-12T12:50:19.524Z,26.7
2022-09-12T12:51:21.209Z,26.6
2022-09-12T12:52:23.375Z,26.6
2022-09-12T12:53:24.957Z,26.6
2022-09-12T12:54:26.721Z,26.6
2022-09-12T12:55:28.431Z,26.6
2022-09-12T12:56:30.264Z,26.6
2022-09-12T12:57:31.843Z,26.6
2022-09-12T12:58:33.379Z,26.5
2022-09-12T12:59:35.173Z,26.5
2022-09-12T13:00:36.999Z,26.5
2022-09-12T13:01:41.703Z,26.5
2022-09-12T13:02:43.637Z,26.5
2022-09-12T13:03:45.561Z,26.5
2022-09-12T13:04:47.811Z,26.5
2022-09-12T13:05:49.361Z,26.5
2022-09-12T13:06:50.984Z,26.5
2022-09-12T13:07:52.595Z,26.5
2022-09-12T13:08:54.389Z,26.5
2022-09-12T13:09:55.983Z,26.5
2022-09-12T13:10:57.835Z,26.5
2022-09-12T13:11:59.571Z,26.5
2022-09-12T13:13:01.244Z,26.5
2022-09-12T13:14:02.788Z,26.5
2022-09-12T13:15:04.692Z,26.5
2022-09-12T13:16:07.453Z,26.5
2022-09-12T13:17:09.708Z,26.5
2022-09-12T13:18:11.452Z,26.5
2022-09-12T13:19:17.562Z,26.5
2022-09-12T13:20:28.905Z,26.5
2022-09-12T13:21:31.748Z,26.5
2022-09-12T13:22:33.338Z,26.5
2022-09-12T13:23:34.857Z,26.5
2022-09-12T13:24:36.413Z,26.5
2022-09-12T13:25:38.360Z,26.5
2022-09-12T13:26:39.950Z,26.5
2022-09-12T13:27:41.562Z,26.5
2022-09-12T13:28:43.218Z,26.4
2022-09-12T13:29:44.793Z,26.4
2022-09-12T13:30:46.572Z,26.4
2022-09-12T13:31:48.726Z,26.4
2022-09-12T13:32:50.275Z,26.4
2022-09-12T13:33:51.914Z,26.3
2022-09-12T13:34:53.451Z,26.4
2022-09-12T13:35:55.113Z,26.4
2022-09-12T13:36:56.729Z,26.4
2022-09-12T13:37:58.338Z,26.4
2022-09-12T13:38:59.937Z,26.4
2022-09-12T13:40:01.564Z,26.4
2022-09-12T13:41:03.612Z,26.4
2022-09-12T13:42:05.125Z,26.4
2022-09-12T13:43:06.859Z,26.4
2022-09-12T13:44:08.393Z,26.5
2022-09-12T13:45:09.983Z,26.5
2022-09-12T13:46:11.665Z,26.5
2022-09-12T13:47:13.605Z,26.5
2022-09-12T13:48:15.834Z,26.4